createdAt,value
2017-12-13T00:00:38.186Z,80.60
2017-12-13T00:03:05.608Z,80.20
2017-12-13T00:05:33.024Z,80.30
2017-12-13T00:08:00.443Z,80.60
2017-12-13T00:10:27.856Z,80.80
2017-12-13T00:12:55.280Z,81.00
2017-12-13T00:15:23.464Z,81.20
2017-12-13T00:17:50.879Z,81.10
2017-12-13T00:20:18.287Z,81.70
2017-12-13T00:22:45.707Z,81.20
2017-12-13T00:25:13.120Z,81.10
2017-12-13T00:27:40.539Z,81.10
2017-12-13T00:30:07.951Z,81.20
2017-12-13T00:32:35.363Z,81.40
2017-12-13T00:35:02.771Z,81.30
2017-12-13T00:37:30.196Z,81.30
2017-12-13T00:39:58.384Z,82.20
2017-12-13T00:42:25.796Z,81.40
2017-12-13T00:44:54.008Z,81.20
2017-12-13T00:47:21.688Z,81.20
2017-12-13T00:49:49.111Z,81.20
2017-12-13T00:52:16.524Z,81.10
2017-12-13T00:54:44.712Z,81.50
2017-12-13T00:57:12.127Z,81.40
2017-12-13T00:59:40.151Z,82.10
2017-12-13T01:02:07.598Z,81.30
2017-12-13T01:04:35.784Z,81.10
2017-12-13T01:07:03.964Z,81.40
2017-12-13T01:09:31.389Z,81.20
2017-12-13T01:11:58.864Z,81.50
2017-12-13T01:14:26.347Z,81.50
2017-12-13T01:16:53.829Z,81.60
2017-12-13T01:19:21.316Z,81.60
2017-12-13T01:21:48.722Z,81.40
2017-12-13T01:24:16.605Z,81.40
2017-12-13T01:26:44.027Z,81.30
2017-12-13T01:29:11.449Z,81.00
2017-12-13T01:31:38.863Z,80.90
2017-12-13T01:34:06.275Z,80.70
2017-12-13T01:36:33.788Z,80.60
2017-12-13T01:39:01.203Z,80.70
2017-12-13T01:41:28.652Z,80.70
2017-12-13T01:43:56.152Z,80.60
2017-12-13T01:46:23.616Z,80.40
2017-12-13T01:48:52.025Z,80.20
2017-12-13T01:51:19.495Z,80.00
2017-12-13T01:53:47.699Z,80.10
2017-12-13T01:56:15.184Z,80.10
2017-12-13T01:58:43.584Z,80.10
2017-12-13T02:01:11.784Z,80.10
2017-12-13T02:03:39.964Z,80.10
2017-12-13T02:08:42.212Z,80.70
2017-12-13T02:11:10.396Z,80.80
2017-12-13T02:13:37.807Z,80.70
2017-12-13T02:16:05.227Z,80.50
2017-12-13T02:18:32.932Z,80.40
2017-12-13T02:21:00.344Z,80.70
2017-12-13T02:23:28.539Z,81.60
2017-12-13T02:25:56.711Z,81.60
2017-12-13T02:28:24.232Z,81.40
2017-12-13T02:30:51.720Z,81.70
2017-12-13T02:33:19.135Z,81.70
2017-12-13T02:35:46.578Z,81.40
2017-12-13T02:38:14.061Z,82.20
2017-12-13T02:40:53.441Z,82.40
2017-12-13T02:43:20.911Z,82.70
2017-12-13T02:45:48.392Z,83.10
2017-12-13T02:48:15.874Z,83.40
2017-12-13T02:50:44.054Z,83.80
2017-12-13T02:53:12.271Z,84.10
2017-12-13T02:55:39.689Z,84.00
2017-12-13T02:58:07.112Z,84.40
2017-12-13T03:00:35.332Z,84.20
2017-12-13T03:03:02.751Z,84.20
2017-12-13T03:05:30.180Z,84.30
2017-12-13T03:07:58.367Z,84.00
2017-12-13T03:10:25.775Z,84.00
2017-12-13T03:12:53.259Z,83.80
2017-12-13T03:15:20.672Z,83.30
2017-12-13T03:17:48.120Z,83.20
2017-12-13T03:20:15.600Z,83.10
2017-12-13T03:22:43.080Z,83.40
2017-12-13T03:25:11.256Z,83.30
2017-12-13T03:27:38.763Z,83.30
2017-12-13T03:30:06.961Z,83.60
2017-12-13T03:32:34.360Z,83.50
2017-12-13T03:35:01.816Z,83.70
2017-12-13T03:37:29.992Z,83.50
2017-12-13T03:39:57.412Z,83.50
2017-12-13T03:42:24.892Z,83.50
2017-12-13T03:44:52.316Z,83.50
2017-12-13T03:47:19.777Z,83.40
2017-12-13T03:49:47.179Z,83.40
2017-12-13T03:52:14.599Z,83.50
2017-12-13T03:54:42.788Z,83.30
2017-12-13T03:57:10.292Z,83.30
2017-12-13T03:59:38.507Z,82.80
2017-12-13T04:02:05.921Z,82.80
2017-12-13T04:04:33.369Z,82.70
2017-12-13T04:07:00.840Z,82.80
2017-12-13T04:09:29.081Z,82.80
2017-12-13T04:11:57.207Z,82.80
2017-12-13T04:14:24.720Z,82.80
2017-12-13T04:16:52.912Z,82.60
2017-12-13T04:19:21.096Z,82.70
2017-12-13T04:21:49.279Z,82.60
2017-12-13T04:24:16.799Z,82.60
2017-12-13T04:26:44.215Z,82.30
2017-12-13T04:29:11.782Z,82.30
2017-12-13T04:31:39.381Z,82.10
2017-12-13T04:34:06.832Z,82.20
2017-12-13T04:36:34.243Z,82.10
2017-12-13T04:39:02.659Z,82.00
2017-12-13T04:41:30.072Z,81.90
2017-12-13T04:43:57.586Z,81.90
2017-12-13T04:46:25.744Z,82.10
2017-12-13T04:48:53.264Z,82.00
2017-12-13T04:51:20.748Z,81.90
2017-12-13T04:53:48.237Z,81.90
2017-12-13T04:56:15.709Z,81.70
2017-12-13T04:58:44.112Z,81.80
2017-12-13T05:01:12.312Z,81.40
2017-12-13T05:03:40.496Z,81.20
2017-12-13T05:06:08.679Z,81.20
2017-12-13T05:08:37.060Z,81.20
2017-12-13T05:11:04.496Z,80.80
2017-12-13T05:13:32.697Z,80.60
2017-12-13T05:16:00.183Z,80.60
2017-12-13T05:18:27.608Z,80.40
2017-12-13T05:20:55.029Z,80.40
2017-12-13T05:23:22.439Z,80.40
2017-12-13T05:25:49.901Z,81.00
2017-12-13T05:28:17.324Z,80.10
2017-12-13T05:30:44.765Z,79.80
2017-12-13T05:33:12.191Z,80.10
2017-12-13T05:35:39.630Z,79.80
2017-12-13T05:38:07.112Z,79.70
2017-12-13T05:40:34.529Z,79.70
2017-12-13T05:43:01.981Z,79.70
2017-12-13T05:45:29.391Z,79.50
2017-12-13T05:47:57.042Z,79.40
2017-12-13T05:50:25.227Z,79.50
2017-12-13T05:52:53.409Z,79.50
2017-12-13T05:55:20.827Z,79.50
2017-12-13T05:57:48.405Z,79.50
2017-12-13T06:00:15.805Z,79.30
2017-12-13T06:02:43.224Z,79.30
2017-12-13T06:05:10.748Z,79.30
2017-12-13T06:07:38.948Z,79.50
2017-12-13T06:10:07.164Z,79.50
2017-12-13T06:12:34.564Z,79.50
2017-12-13T06:15:01.987Z,79.10
2017-12-13T06:17:29.496Z,79.20
2017-12-13T06:19:56.919Z,79.30
2017-12-13T06:22:24.356Z,79.30
2017-12-13T06:24:51.831Z,79.20
2017-12-13T06:27:20.036Z,79.30
2017-12-13T06:29:48.396Z,79.30
2017-12-13T06:32:15.807Z,79.40
2017-12-13T06:34:44.041Z,79.40
2017-12-13T06:37:11.505Z,79.40
2017-12-13T06:39:38.928Z,79.40
2017-12-13T06:42:06.354Z,79.60
2017-12-13T06:44:34.535Z,80.30
2017-12-13T06:47:02.724Z,79.50
2017-12-13T06:49:30.249Z,79.60
2017-12-13T06:51:57.663Z,79.70
2017-12-13T06:54:25.112Z,79.80
2017-12-13T06:56:52.592Z,79.60
2017-12-13T06:59:20.077Z,79.50
2017-12-13T07:01:47.556Z,79.50
2017-12-13T07:04:14.981Z,79.50
2017-12-13T07:06:42.391Z,79.30
2017-12-13T07:09:09.833Z,79.40
2017-12-13T07:11:37.248Z,79.20
2017-12-13T07:14:04.763Z,79.10
2017-12-13T07:16:33.070Z,79.40
2017-12-13T07:19:01.264Z,79.60
2017-12-13T07:21:29.443Z,78.60
2017-12-13T07:23:56.948Z,78.60
2017-12-13T07:26:24.368Z,78.40
2017-12-13T07:28:51.937Z,78.40
2017-12-13T07:31:19.381Z,78.50
2017-12-13T07:33:46.772Z,78.50
2017-12-13T07:36:14.256Z,78.70
2017-12-13T07:38:41.679Z,78.40
2017-12-13T07:41:09.087Z,78.40
2017-12-13T07:43:36.540Z,78.80
2017-12-13T07:46:03.957Z,78.80
2017-12-13T07:48:32.152Z,78.70
2017-12-13T07:50:59.664Z,78.60
2017-12-13T07:53:27.079Z,78.60
2017-12-13T07:55:54.508Z,78.30
2017-12-13T07:58:22.009Z,78.50
2017-12-13T08:00:49.436Z,78.40
2017-12-13T08:03:16.870Z,78.30
2017-12-13T08:05:45.476Z,78.50
2017-12-13T08:08:13.655Z,78.50
2017-12-13T08:10:41.164Z,78.40
2017-12-13T08:13:09.320Z,78.90
2017-12-13T08:15:36.748Z,78.10
2017-12-13T08:18:04.162Z,78.20
2017-12-13T08:20:31.584Z,77.80
2017-12-13T08:22:59.805Z,77.70
2017-12-13T08:25:27.492Z,77.70
2017-12-13T08:27:54.911Z,77.80
2017-12-13T08:30:22.356Z,77.90
2017-12-13T08:32:49.835Z,77.10
2017-12-13T08:35:17.317Z,77.20
2017-12-13T08:37:44.801Z,77.10
2017-12-13T08:40:12.386Z,77.00
2017-12-13T08:42:39.868Z,76.70
2017-12-13T08:45:07.292Z,76.70
2017-12-13T08:47:34.711Z,76.60
2017-12-13T08:50:02.216Z,76.50
2017-12-13T08:52:29.763Z,76.50
2017-12-13T08:54:57.697Z,76.20
2017-12-13T08:57:25.323Z,74.90
2017-12-13T08:59:52.764Z,74.50
2017-12-13T09:02:20.177Z,73.70
2017-12-13T09:04:47.600Z,73.30
2017-12-13T09:07:15.871Z,71.80
2017-12-13T09:09:43.509Z,71.80
2017-12-13T09:12:11.671Z,72.40
2017-12-13T09:14:39.188Z,72.40
2017-12-13T09:17:07.369Z,72.70
2017-12-13T09:19:35.586Z,72.20
2017-12-13T09:22:03.169Z,72.10
2017-12-13T09:24:31.351Z,72.50
2017-12-13T09:26:59.532Z,71.40
2017-12-13T09:29:27.060Z,71.40
2017-12-13T09:31:54.468Z,71.00
2017-12-13T09:34:21.892Z,71.20
2017-12-13T09:36:50.072Z,70.70
2017-12-13T09:39:17.492Z,70.70
2017-12-13T09:41:45.079Z,70.50
2017-12-13T09:44:13.244Z,68.90
2017-12-13T09:46:40.760Z,69.40
2017-12-13T09:49:08.408Z,69.50
2017-12-13T09:51:36.128Z,70.10
2017-12-13T09:54:04.336Z,69.10
2017-12-13T09:56:31.817Z,69.00
2017-12-13T09:59:00.017Z,67.80
2017-12-13T10:01:28.203Z,67.70
2017-12-13T10:03:56.375Z,69.00
2017-12-13T10:06:24.568Z,67.80
2017-12-13T10:08:51.982Z,67.80
2017-12-13T10:11:20.164Z,67.80
2017-12-13T10:13:47.675Z,67.60
2017-12-13T10:16:15.156Z,68.40
2017-12-13T10:18:42.640Z,67.80
2017-12-13T10:21:10.064Z,67.20
2017-12-13T10:23:37.479Z,66.70
2017-12-13T10:32:27.999Z,66.40
2017-12-13T10:34:55.448Z,66.40
2017-12-13T10:37:23.627Z,66.00
2017-12-13T10:39:51.140Z,66.00
2017-12-13T10:42:18.607Z,65.90
2017-12-13T10:44:46.028Z,66.20
2017-12-13T10:47:13.447Z,66.20
2017-12-13T10:49:40.864Z,66.20
2017-12-13T10:52:08.300Z,66.40
2017-12-13T10:54:35.752Z,65.50
2017-12-13T10:57:03.168Z,65.70
2017-12-13T10:59:31.434Z,66.40
2017-12-13T11:01:58.823Z,66.40
2017-12-13T11:04:26.268Z,66.40
2017-12-13T11:06:53.668Z,66.00
2017-12-13T11:09:21.088Z,66.00
2017-12-13T11:11:48.508Z,66.70
2017-12-13T11:14:16.021Z,66.90
2017-12-13T11:16:43.489Z,65.90
2017-12-13T11:19:10.957Z,65.60
2017-12-13T11:21:38.434Z,66.50
2017-12-13T11:24:05.856Z,66.10
2017-12-13T11:26:34.790Z,65.80
2017-12-13T11:29:02.272Z,65.80
2017-12-13T11:31:29.740Z,65.80
2017-12-13T11:33:57.208Z,66.00
2017-12-13T11:36:25.377Z,66.00
2017-12-13T11:38:53.594Z,65.50
2017-12-13T11:41:21.027Z,65.50
2017-12-13T11:43:49.248Z,65.90
2017-12-13T11:46:16.716Z,65.90
2017-12-13T11:48:44.128Z,66.20
2017-12-13T11:51:11.651Z,65.60
2017-12-13T11:53:39.063Z,65.20
2017-12-13T11:56:06.590Z,65.30
2017-12-13T11:58:34.008Z,65.00
2017-12-13T12:01:01.425Z,65.60
2017-12-13T12:03:28.848Z,65.30
2017-12-13T12:05:56.275Z,65.10
2017-12-13T12:08:23.840Z,66.30
2017-12-13T12:10:51.307Z,66.20
2017-12-13T12:13:18.778Z,66.70
2017-12-13T12:15:46.198Z,67.20
2017-12-13T12:18:13.712Z,67.80
2017-12-13T12:20:41.200Z,67.90
2017-12-13T12:23:08.611Z,67.70
2017-12-13T12:25:37.540Z,67.60
2017-12-13T12:28:05.748Z,67.60
2017-12-13T12:30:33.171Z,67.50
2017-12-13T12:33:00.685Z,67.50
2017-12-13T12:35:28.148Z,68.20
2017-12-13T12:37:55.564Z,68.20
2017-12-13T12:40:22.989Z,67.40
2017-12-13T12:42:50.468Z,68.70
2017-12-13T12:45:17.950Z,68.60
2017-12-13T12:47:45.352Z,69.20
2017-12-13T12:50:12.868Z,69.00
2017-12-13T12:52:41.261Z,69.10
2017-12-13T12:55:08.675Z,69.80
2017-12-13T12:57:36.150Z,69.60
2017-12-13T13:00:03.559Z,69.80
2017-12-13T13:02:31.045Z,69.60
2017-12-13T13:04:58.508Z,69.80
2017-12-13T13:07:25.929Z,70.50
2017-12-13T13:09:53.342Z,70.30
2017-12-13T13:12:20.768Z,71.00
2017-12-13T13:14:48.297Z,70.60
2017-12-13T13:17:15.753Z,71.80
2017-12-13T13:19:43.183Z,70.90
2017-12-13T13:22:10.599Z,72.00
2017-12-13T13:24:38.015Z,71.80
2017-12-13T13:27:05.432Z,73.50
2017-12-13T13:29:32.849Z,74.70
2017-12-13T13:32:00.370Z,74.80
2017-12-13T13:34:28.553Z,75.40
2017-12-13T13:36:55.991Z,75.30
2017-12-13T13:39:24.171Z,75.90
2017-12-13T13:41:51.676Z,75.90
2017-12-13T13:44:19.162Z,76.50
2017-12-13T13:46:46.561Z,77.30
2017-12-13T13:49:14.088Z,77.60
2017-12-13T13:51:41.503Z,78.30
2017-12-13T13:54:09.035Z,77.80
2017-12-13T13:56:36.444Z,77.40
2017-12-13T13:59:03.867Z,76.90
2017-12-13T14:01:31.356Z,77.60
2017-12-13T14:03:58.810Z,77.40
2017-12-13T14:06:26.324Z,77.50
2017-12-13T14:08:53.752Z,77.50
2017-12-13T14:11:21.217Z,78.20
2017-12-13T14:13:48.684Z,78.20
2017-12-13T14:16:16.098Z,78.80
2017-12-13T14:18:43.515Z,79.10
2017-12-13T14:21:10.928Z,79.50
2017-12-13T14:23:38.361Z,79.30
2017-12-13T14:26:05.766Z,79.10
2017-12-13T14:28:33.224Z,79.60
2017-12-13T14:31:00.637Z,80.10
2017-12-13T14:33:29.672Z,80.20
2017-12-13T14:35:57.140Z,80.20
2017-12-13T14:38:24.628Z,80.70
2017-12-13T14:40:52.116Z,80.70
2017-12-13T14:43:19.528Z,81.40
2017-12-13T14:45:47.720Z,81.20
2017-12-13T14:48:15.970Z,81.80
2017-12-13T14:50:43.394Z,81.80
2017-12-13T14:53:10.868Z,81.70
2017-12-13T14:55:38.289Z,81.90
2017-12-13T14:58:05.722Z,81.60
2017-12-13T15:00:33.131Z,82.20
2017-12-13T15:03:01.312Z,82.60
2017-12-13T15:05:28.748Z,82.60
2017-12-13T15:07:56.160Z,82.10
2017-12-13T15:10:23.576Z,82.50
2017-12-13T15:12:50.993Z,82.60
2017-12-13T15:15:19.179Z,83.20
2017-12-13T15:17:47.658Z,82.80
2017-12-13T15:20:15.181Z,82.80
2017-12-13T15:22:42.592Z,82.60
2017-12-13T15:25:10.025Z,82.80
2017-12-13T15:27:37.431Z,82.90
2017-12-13T15:30:04.865Z,83.00
2017-12-13T15:32:32.325Z,83.10
2017-12-13T15:34:59.809Z,83.30
2017-12-13T15:37:27.268Z,83.50
2017-12-13T15:39:54.684Z,83.50
2017-12-13T15:42:22.125Z,83.80
2017-12-13T15:44:49.537Z,83.80
2017-12-13T15:47:17.744Z,84.50
2017-12-13T15:49:45.160Z,84.20
2017-12-13T15:52:12.584Z,84.10
2017-12-13T15:54:40.065Z,84.70
2017-12-13T15:57:08.356Z,84.80
2017-12-13T15:59:35.825Z,84.80
2017-12-13T16:02:03.248Z,84.60
2017-12-13T16:04:31.427Z,84.80
2017-12-13T16:06:58.856Z,84.80
2017-12-13T16:09:26.320Z,84.70
2017-12-13T16:11:53.893Z,85.00
2017-12-13T16:14:22.056Z,84.70
2017-12-13T16:16:50.259Z,84.70
2017-12-13T16:19:17.676Z,84.70
2017-12-13T16:21:45.091Z,85.00
2017-12-13T16:24:12.574Z,85.00
2017-12-13T16:26:40.040Z,84.90
2017-12-13T16:29:07.507Z,84.90
2017-12-13T16:31:34.975Z,85.20
2017-12-13T16:34:02.451Z,85.20
2017-12-13T16:36:29.920Z,85.40
2017-12-13T16:38:57.342Z,85.30
2017-12-13T16:41:24.876Z,85.40
2017-12-13T16:43:52.287Z,85.70
2017-12-13T16:46:19.741Z,85.30
2017-12-13T16:48:47.269Z,85.20
2017-12-13T16:51:14.688Z,85.00
2017-12-13T16:53:42.100Z,85.50
2017-12-13T16:56:09.519Z,85.70
2017-12-13T16:58:37.047Z,85.60
2017-12-13T17:01:05.212Z,85.90
2017-12-13T17:03:33.419Z,85.70
2017-12-13T17:06:00.840Z,85.70
2017-12-13T17:08:28.360Z,85.70
2017-12-13T17:10:55.810Z,85.70
2017-12-13T17:13:24.019Z,85.50
2017-12-13T17:15:51.431Z,86.10
2017-12-13T17:18:18.860Z,85.70
2017-12-13T17:20:46.270Z,85.80
2017-12-13T17:23:13.894Z,85.70
2017-12-13T17:25:42.053Z,85.60
2017-12-13T17:28:10.239Z,85.60
2017-12-13T17:30:37.741Z,85.60
2017-12-13T17:33:05.207Z,85.40
2017-12-13T17:35:32.644Z,85.60
2017-12-13T17:38:00.840Z,85.30
2017-12-13T17:40:29.048Z,85.40
2017-12-13T17:42:56.517Z,85.30
2017-12-13T17:45:23.981Z,85.20
2017-12-13T17:47:52.155Z,85.10
2017-12-13T17:50:20.336Z,84.70
2017-12-13T17:52:48.548Z,85.00
2017-12-13T17:55:15.972Z,85.00
2017-12-13T17:57:43.487Z,85.20
2017-12-13T18:00:10.904Z,84.90
2017-12-13T18:02:38.319Z,85.30
2017-12-13T18:05:05.796Z,85.50
2017-12-13T18:07:33.215Z,85.10
2017-12-13T18:10:00.638Z,85.40
2017-12-13T18:12:28.184Z,85.60
2017-12-13T18:14:55.564Z,85.40
2017-12-13T18:17:22.992Z,85.50
2017-12-13T18:19:50.513Z,85.70
2017-12-13T18:22:17.996Z,85.50
2017-12-13T18:24:45.408Z,85.60
2017-12-13T18:27:12.836Z,85.50
2017-12-13T18:29:40.366Z,85.50
2017-12-13T18:32:07.915Z,85.80
2017-12-13T18:34:35.331Z,85.30
2017-12-13T18:37:03.536Z,85.50
2017-12-13T18:39:30.935Z,85.40
2017-12-13T18:41:58.464Z,85.40
2017-12-13T18:44:25.963Z,85.60
2017-12-13T18:46:53.380Z,85.50
2017-12-13T18:49:21.583Z,85.60
2017-12-13T18:51:49.776Z,85.70
2017-12-13T18:54:17.213Z,85.70
2017-12-13T18:56:44.608Z,85.40
2017-12-13T18:59:12.032Z,85.40
2017-12-13T19:01:39.469Z,85.10
2017-12-13T19:04:06.925Z,85.20
2017-12-13T19:06:34.324Z,85.30
2017-12-13T19:09:01.757Z,85.60
2017-12-13T19:11:29.155Z,85.40
2017-12-13T19:13:56.576Z,85.40
2017-12-13T19:16:24.079Z,85.50
2017-12-13T19:18:51.503Z,85.80
2017-12-13T19:21:19.679Z,85.60
2017-12-13T19:23:47.883Z,85.70
2017-12-13T19:26:15.316Z,85.70
2017-12-13T19:28:42.743Z,86.10
2017-12-13T19:31:10.173Z,85.80
2017-12-13T19:33:37.679Z,85.70
2017-12-13T19:36:05.091Z,86.10
2017-12-13T19:38:32.620Z,86.10
2017-12-13T19:41:00.044Z,85.90
2017-12-13T19:43:27.559Z,86.00
2017-12-13T19:45:55.060Z,86.20
2017-12-13T19:48:22.485Z,86.30
2017-12-13T19:50:49.896Z,86.50
2017-12-13T19:53:17.343Z,86.40
2017-12-13T19:55:44.755Z,86.70
2017-12-13T19:58:12.272Z,86.70
2017-12-13T20:00:39.687Z,86.60
2017-12-13T20:03:07.168Z,86.50
2017-12-13T20:05:34.556Z,86.80
2017-12-13T20:08:02.739Z,86.70
2017-12-13T20:10:30.956Z,86.80
2017-12-13T20:12:58.364Z,86.80
2017-12-13T20:15:25.804Z,87.00
2017-12-13T20:17:53.233Z,86.80
2017-12-13T20:20:20.728Z,86.70
2017-12-13T20:22:48.201Z,86.80
2017-12-13T20:25:15.621Z,86.60
2017-12-13T20:27:43.035Z,86.70
2017-12-13T20:30:10.468Z,86.70
2017-12-13T20:32:37.892Z,86.50
2017-12-13T20:35:05.311Z,86.60
2017-12-13T20:37:34.487Z,86.80
2017-12-13T20:40:01.925Z,86.70
2017-12-13T20:42:29.392Z,86.70
2017-12-13T20:44:56.887Z,86.50
2017-12-13T20:47:24.276Z,86.40
2017-12-13T20:49:51.797Z,86.40
2017-12-13T20:52:19.209Z,86.20
2017-12-13T20:54:46.741Z,86.20
2017-12-13T20:57:14.151Z,86.10
2017-12-13T20:59:41.572Z,86.00
2017-12-13T21:02:09.045Z,86.10
2017-12-13T21:04:36.464Z,86.30
2017-12-13T21:07:05.391Z,86.80
2017-12-13T21:09:33.671Z,86.50
2017-12-13T21:12:01.104Z,86.50
2017-12-13T21:14:28.519Z,86.40
2017-12-13T21:16:56.708Z,87.00
2017-12-13T21:19:24.895Z,87.00
2017-12-13T21:21:53.080Z,87.10
2017-12-13T21:24:21.260Z,87.10
2017-12-13T21:26:49.452Z,87.10
2017-12-13T21:29:17.801Z,87.10
2017-12-13T21:31:45.242Z,87.00
2017-12-13T21:34:12.652Z,87.10
2017-12-13T21:36:40.178Z,87.20
2017-12-13T21:39:08.338Z,87.60
2017-12-13T21:41:36.550Z,87.50
2017-12-13T21:44:03.966Z,87.40
2017-12-13T21:46:31.488Z,87.20
2017-12-13T21:48:58.900Z,87.30
2017-12-13T21:51:26.336Z,87.60
2017-12-13T21:53:53.759Z,87.60
2017-12-13T21:56:21.270Z,87.60
2017-12-13T21:58:48.715Z,87.90
2017-12-13T22:01:16.912Z,87.90
2017-12-13T22:03:44.383Z,87.90
2017-12-13T22:06:11.813Z,87.90
2017-12-13T22:08:39.243Z,87.80
2017-12-13T22:11:06.659Z,87.90
2017-12-13T22:13:34.084Z,88.10
2017-12-13T22:16:01.500Z,88.00
2017-12-13T22:18:28.924Z,88.30
2017-12-13T22:20:56.376Z,88.30
2017-12-13T22:23:23.845Z,88.20
2017-12-13T22:25:51.263Z,88.30
2017-12-13T22:28:18.784Z,88.40
2017-12-13T22:30:46.268Z,88.40
2017-12-13T22:33:13.688Z,88.40
2017-12-13T22:35:41.922Z,88.60
2017-12-13T22:38:09.395Z,88.30
2017-12-13T22:40:36.840Z,88.30
2017-12-13T22:43:04.272Z,88.20
2017-12-13T22:45:31.792Z,88.50
2017-12-13T22:47:59.256Z,88.40
2017-12-13T22:50:26.680Z,88.40
2017-12-13T22:52:54.113Z,88.10
2017-12-13T22:55:21.511Z,88.00
2017-12-13T22:57:49.044Z,87.70
2017-12-13T23:00:16.572Z,88.00
2017-12-13T23:02:44.793Z,87.80
2017-12-13T23:05:12.212Z,87.80
2017-12-13T23:07:39.734Z,87.80
2017-12-13T23:10:07.139Z,87.40
2017-12-13T23:12:34.676Z,87.60
2017-12-13T23:15:02.113Z,87.50
2017-12-13T23:17:30.331Z,87.60
2017-12-13T23:19:57.755Z,87.50
2017-12-13T23:22:25.275Z,87.60
2017-12-13T23:24:52.687Z,87.90
2017-12-13T23:27:20.220Z,87.90
2017-12-13T23:29:47.885Z,88.00
2017-12-13T23:32:15.352Z,87.90
2017-12-13T23:34:42.783Z,88.00
2017-12-13T23:37:10.184Z,87.80
2017-12-13T23:39:37.763Z,88.00
2017-12-13T23:42:05.924Z,87.90
2017-12-13T23:44:34.108Z,88.00
2017-12-13T23:47:02.431Z,88.00
2017-12-13T23:49:29.834Z,88.00
2017-12-13T23:51:57.296Z,88.20
2017-12-13T23:54:24.720Z,88.30
2017-12-13T23:56:52.132Z,88.50
2017-12-13T23:59:19.562Z,88.70
